< < Back
Terminal Aerodrome Forecast


Current Version              Previous Versions:   1  2  3  4  5  6  7  8  9  

Terminal Aerodrome Forecast

186
FTUS42 KCAE 280531
TAFCAE
TAF
KCAE 280531Z 2806/2906 VRB03KT P6SM SCT060 BKN150
     FM281000 VRB03KT P6SM BKN050
     FM281600 08007KT P6SM SCT045 BKN150=

Latest METAR

582
SAUS80 KWBC 281000 CCA
MTRCAE
METAR KCAE 280956Z 00000KT 10SM SCT050 25/21 A3010 RMK AO2 SLP190
T02500211


USA.gov is the U.S. government's official web portal to all federal, state and local government web resources and services.